Perdilandia, Brazil
Current Conditions -  °F | °C
As of 10:00 AM on Friday 28 Nov 2014 (Local Time) from SBUL Reporting Station
Drizzle Drizzle  
Wind Chill: 68°   Ceiling: 200
Heat Index: 68°   Visibility: 6mi
Dew Point: 66°   Wind: 9mph
Humidity: 94%   Direction: 340°NNW
Pressure: 30.06"   Gusts: NA
Location:  18.81°S, 50.3°W
Report Text: SBUL 281200Z 34008KT 9999 -DZ OVC002 20/19 Q1018
Loading
Personal Weather Stations






























Interactive Weather Map New forecast layout! Learn more

10-Day Weather Forecast

Advertisements
Track Severe Weather on mobile